createdAt,value
2023-02-16T00:00:47.996Z,100141.77
2023-02-16T00:03:35.913Z,100143.39
2023-02-16T00:06:06.090Z,100141.55
2023-02-16T00:08:35.952Z,100142.20
2023-02-16T00:11:23.580Z,100137.44
2023-02-16T00:13:54.947Z,100133.66
2023-02-16T00:16:25.756Z,100132.46
2023-02-16T00:18:54.801Z,100128.26
2023-02-16T00:21:23.757Z,100128.42
2023-02-16T00:23:53.613Z,100124.20
2023-02-16T00:26:27.825Z,100119.52
2023-02-16T00:29:02.571Z,100114.19
2023-02-16T00:31:35.851Z,100112.35
2023-02-16T00:34:42.182Z,100118.27
2023-02-16T00:37:14.873Z,100111.48
2023-02-16T00:39:45.509Z,100116.29
2023-02-16T00:42:24.696Z,100111.96
2023-02-16T00:44:56.258Z,100111.36
2023-02-16T00:47:33.111Z,100111.19
2023-02-16T00:50:02.142Z,100114.73
2023-02-16T00:52:38.609Z,100111.08
2023-02-16T00:55:14.574Z,100117.20
2023-02-16T00:57:54.845Z,100120.52
2023-02-16T01:00:30.662Z,100125.06
2023-02-16T01:03:03.215Z,100129.73
2023-02-16T01:05:32.026Z,100131.23
2023-02-16T01:08:20.748Z,100126.60
2023-02-16T01:11:11.730Z,100122.13
2023-02-16T01:13:51.831Z,100125.88
2023-02-16T01:16:25.554Z,100127.20
2023-02-16T01:18:54.737Z,100127.00
2023-02-16T01:21:24.029Z,100125.09
2023-02-16T01:23:52.803Z,100128.56
2023-02-16T01:26:22.606Z,100129.91
2023-02-16T01:28:51.985Z,100130.92
2023-02-16T01:31:21.045Z,100133.27
2023-02-16T01:33:51.194Z,100131.15
2023-02-16T01:36:27.155Z,100125.83
2023-02-16T01:38:56.005Z,100126.20
2023-02-16T01:41:33.725Z,100122.89
2023-02-16T01:44:06.397Z,100120.35
2023-02-16T01:46:50.173Z,100117.59
2023-02-16T01:49:21.246Z,100114.28
2023-02-16T01:52:19.849Z,100111.40
2023-02-16T01:54:59.479Z,100109.28
2023-02-16T01:57:42.287Z,100106.02
2023-02-16T02:00:11.697Z,100105.02
2023-02-16T02:02:48.870Z,100103.64
2023-02-16T02:05:37.801Z,100100.18
2023-02-16T02:08:51.291Z,100102.80
2023-02-16T02:11:33.491Z,100099.98
2023-02-16T02:14:16.549Z,100101.88
2023-02-16T02:17:02.494Z,100100.13
2023-02-16T02:19:39.333Z,100097.73
2023-02-16T02:22:29.928Z,100096.54
2023-02-16T02:25:20.007Z,100099.46
2023-02-16T02:28:47.560Z,100094.70
2023-02-16T02:31:17.086Z,100096.86
2023-02-16T02:34:22.852Z,100090.92
2023-02-16T02:37:23.693Z,100085.67
2023-02-16T02:40:03.223Z,100082.84
2023-02-16T02:42:55.826Z,100082.64
2023-02-16T02:45:35.096Z,100077.75
2023-02-16T02:48:04.852Z,100076.86
2023-02-16T02:51:07.707Z,100072.64
2023-02-16T02:54:33.516Z,100070.63
2023-02-16T02:57:33.880Z,100071.50
2023-02-16T03:00:39.282Z,100072.14
2023-02-16T03:03:08.075Z,100080.20
2023-02-16T03:05:39.822Z,100077.15
2023-02-16T03:08:16.144Z,100072.27
2023-02-16T03:11:29.971Z,100071.00
2023-02-16T03:14:21.920Z,100066.23
2023-02-16T03:17:30.882Z,100061.30
2023-02-16T03:20:21.113Z,100056.83
2023-02-16T03:23:10.537Z,100048.48
2023-02-16T03:25:59.031Z,100050.50
2023-02-16T03:28:48.751Z,100055.16
2023-02-16T03:31:34.122Z,100058.59
2023-02-16T03:34:03.781Z,100058.20
2023-02-16T03:36:35.390Z,100058.60
2023-02-16T03:39:05.262Z,100063.55
2023-02-16T03:41:39.108Z,100068.48
2023-02-16T03:44:08.272Z,100077.55
2023-02-16T03:46:37.171Z,100072.20
2023-02-16T03:49:06.204Z,100072.02
2023-02-16T03:51:35.118Z,100077.27
2023-02-16T03:54:04.053Z,100074.17
2023-02-16T03:56:32.931Z,100079.35
2023-02-16T03:59:01.707Z,100075.55
2023-02-16T04:01:30.498Z,100071.39
2023-02-16T04:03:59.388Z,100075.15
2023-02-16T04:06:28.294Z,100077.91
2023-02-16T04:08:57.174Z,100081.30
2023-02-16T04:11:44.623Z,100086.71
2023-02-16T04:14:13.547Z,100085.22
2023-02-16T04:16:42.321Z,100082.33
2023-02-16T04:19:11.734Z,100086.28
2023-02-16T04:21:40.909Z,100084.87
2023-02-16T04:24:09.947Z,100084.36
2023-02-16T04:26:38.811Z,100086.66
2023-02-16T04:29:07.634Z,100085.96
2023-02-16T04:31:36.640Z,100092.90
2023-02-16T04:34:05.577Z,100092.41
2023-02-16T04:36:34.925Z,100094.71
2023-02-16T04:39:04.345Z,100091.89
2023-02-16T04:41:33.201Z,100097.68
2023-02-16T04:44:01.838Z,100100.67
2023-02-16T04:46:30.828Z,100101.95
2023-02-16T04:49:00.750Z,100103.16
2023-02-16T04:51:29.573Z,100109.36
2023-02-16T04:53:58.351Z,100108.38
2023-02-16T04:56:26.995Z,100107.09
2023-02-16T04:58:56.415Z,100112.87
2023-02-16T05:01:26.525Z,100107.65
2023-02-16T05:03:55.245Z,100114.31
2023-02-16T05:06:23.914Z,100113.38
2023-02-16T05:08:52.717Z,100107.71
2023-02-16T05:11:39.836Z,100110.41
2023-02-16T05:14:36.253Z,100107.39
2023-02-16T05:17:05.018Z,100107.21
2023-02-16T05:19:33.982Z,100103.13
2023-02-16T05:22:03.375Z,100102.12
2023-02-16T05:24:32.662Z,100102.30
2023-02-16T05:27:06.140Z,100104.21
2023-02-16T05:29:35.450Z,100102.52
2023-02-16T05:32:04.894Z,100107.66
2023-02-16T05:34:34.266Z,100113.11
2023-02-16T05:37:03.397Z,100115.30
2023-02-16T05:39:32.442Z,100127.23
2023-02-16T05:42:01.104Z,100132.89
2023-02-16T05:44:30.042Z,100135.40
2023-02-16T05:46:59.164Z,100143.29
2023-02-16T05:49:28.392Z,100137.52
2023-02-16T05:51:57.109Z,100142.27
2023-02-16T05:54:26.268Z,100144.21
2023-02-16T05:56:55.169Z,100147.73
2023-02-16T05:59:24.163Z,100143.48
2023-02-16T06:01:53.049Z,100143.10
2023-02-16T06:04:22.640Z,100144.83
2023-02-16T06:06:51.532Z,100142.74
2023-02-16T06:09:20.790Z,100145.73
2023-02-16T06:11:50.200Z,100142.55
2023-02-16T06:14:21.467Z,100144.23
2023-02-16T06:16:57.163Z,100145.21
2023-02-16T06:19:26.561Z,100147.10
2023-02-16T06:21:55.938Z,100150.83
2023-02-16T06:24:25.489Z,100154.67
2023-02-16T06:26:54.485Z,100158.67
2023-02-16T06:29:24.148Z,100164.25
2023-02-16T06:31:53.159Z,100166.30
2023-02-16T06:34:21.984Z,100168.84
2023-02-16T06:36:51.111Z,100170.98
2023-02-16T06:39:20.202Z,100173.89
2023-02-16T06:41:49.446Z,100177.93
2023-02-16T06:44:18.482Z,100173.94
2023-02-16T06:46:48.919Z,100177.65
2023-02-16T06:49:20.387Z,100183.77
2023-02-16T06:51:50.606Z,100179.19
2023-02-16T06:54:19.566Z,100178.42
2023-02-16T06:56:48.429Z,100180.26
2023-02-16T06:59:17.376Z,100179.20
2023-02-16T07:01:46.748Z,100171.19
2023-02-16T07:04:15.776Z,100166.48
2023-02-16T07:06:44.806Z,100166.31
2023-02-16T07:09:13.738Z,100169.80
2023-02-16T07:11:42.520Z,100173.27
2023-02-16T07:14:11.748Z,100179.23
2023-02-16T07:16:40.646Z,100181.05
2023-02-16T07:19:11.498Z,100185.29
2023-02-16T07:21:40.427Z,100187.20
2023-02-16T07:24:09.287Z,100183.86
2023-02-16T07:26:39.372Z,100184.33
2023-02-16T07:29:08.189Z,100184.64
2023-02-16T07:31:37.230Z,100186.14
2023-02-16T07:34:06.571Z,100190.17
2023-02-16T07:36:35.882Z,100192.07
2023-02-16T07:39:05.646Z,100187.54
2023-02-16T07:41:34.883Z,100184.92
2023-02-16T07:44:04.563Z,100181.32
2023-02-16T07:46:33.688Z,100178.72
2023-02-16T07:49:02.663Z,100177.50
2023-02-16T07:51:33.108Z,100180.86
2023-02-16T07:54:02.701Z,100182.91
2023-02-16T07:56:34.262Z,100184.70
2023-02-16T07:59:04.047Z,100188.50
2023-02-16T08:01:32.997Z,100185.59
2023-02-16T08:04:02.290Z,100193.27
2023-02-16T08:06:31.287Z,100189.61
2023-02-16T08:09:00.324Z,100188.88
2023-02-16T08:11:29.448Z,100190.34
2023-02-16T08:14:00.755Z,100192.63
2023-02-16T08:16:30.742Z,100188.77
2023-02-16T08:19:02.029Z,100189.40
2023-02-16T08:21:35.282Z,100195.36
2023-02-16T08:24:07.508Z,100191.86
2023-02-16T08:26:40.065Z,100195.08
2023-02-16T08:29:13.969Z,100196.43
2023-02-16T08:31:43.877Z,100192.11
2023-02-16T08:34:17.620Z,100197.16
2023-02-16T08:36:49.383Z,100194.46
2023-02-16T08:39:21.490Z,100191.62
2023-02-16T08:41:51.253Z,100191.52
2023-02-16T08:44:22.949Z,100192.59
2023-02-16T08:46:54.544Z,100198.04
2023-02-16T08:49:24.805Z,100205.80
2023-02-16T08:51:58.859Z,100207.17
2023-02-16T08:54:30.900Z,100210.85
2023-02-16T08:57:00.653Z,100213.92
2023-02-16T08:59:30.064Z,100215.70
2023-02-16T09:02:00.087Z,100219.27
2023-02-16T09:04:29.669Z,100223.58
2023-02-16T09:07:00.252Z,100219.05
2023-02-16T09:09:29.876Z,100218.92
2023-02-16T09:11:59.410Z,100222.08
2023-02-16T09:14:28.780Z,100223.14
2023-02-16T09:16:59.883Z,100224.16
2023-02-16T09:19:29.203Z,100223.11
2023-02-16T09:21:58.460Z,100226.02
2023-02-16T09:24:27.941Z,100231.23
2023-02-16T09:26:57.370Z,100230.91
2023-02-16T09:29:26.671Z,100229.55
2023-02-16T09:31:56.381Z,100232.11
2023-02-16T09:34:27.748Z,100234.89
2023-02-16T09:36:58.918Z,100234.95
2023-02-16T09:39:29.250Z,100238.27
2023-02-16T09:42:20.054Z,100235.84
2023-02-16T09:45:05.991Z,100236.84
2023-02-16T09:47:40.099Z,100239.13
2023-02-16T09:50:50.446Z,100233.42
2023-02-16T09:53:25.100Z,100243.45
2023-02-16T09:56:19.096Z,100243.21
2023-02-16T09:58:58.892Z,100244.77
2023-02-16T10:01:43.025Z,100245.83
2023-02-16T10:04:24.679Z,100244.59
2023-02-16T10:07:12.313Z,100242.36
2023-02-16T10:09:49.487Z,100246.88
2023-02-16T10:12:26.281Z,100245.77
2023-02-16T10:15:03.902Z,100251.26
2023-02-16T10:17:38.469Z,100254.66
2023-02-16T10:20:19.553Z,100253.21
2023-02-16T10:22:58.190Z,100251.39
2023-02-16T10:25:44.048Z,100242.65
2023-02-16T10:28:40.161Z,100240.77
2023-02-16T10:31:35.551Z,100236.54
2023-02-16T10:34:22.639Z,100238.83
2023-02-16T10:37:25.902Z,100233.30
2023-02-16T10:40:13.434Z,100238.88
2023-02-16T10:43:22.231Z,100237.57
2023-02-16T10:45:53.150Z,100228.27
2023-02-16T10:48:23.404Z,100225.71
2023-02-16T10:51:10.135Z,100213.95
2023-02-16T10:54:13.972Z,100212.30
2023-02-16T10:56:54.533Z,100208.06
2023-02-16T10:59:27.887Z,100205.45
2023-02-16T11:01:59.906Z,100205.75
2023-02-16T11:04:44.814Z,100199.79
2023-02-16T11:07:18.364Z,100197.33
2023-02-16T11:10:01.622Z,100195.86
2023-02-16T11:12:40.356Z,100192.05
2023-02-16T11:15:19.158Z,100196.52
2023-02-16T11:17:53.127Z,100195.48
2023-02-16T11:20:28.954Z,100189.81
2023-02-16T11:23:23.368Z,100194.50
2023-02-16T11:26:11.021Z,100187.49
2023-02-16T11:28:49.306Z,100189.91
2023-02-16T11:31:37.390Z,100179.52
2023-02-16T11:34:06.672Z,100180.48
2023-02-16T11:36:39.901Z,100173.91
2023-02-16T11:39:21.447Z,100176.27
2023-02-16T11:41:55.027Z,100173.52
2023-02-16T11:44:36.180Z,100174.23
2023-02-16T11:47:27.697Z,100174.55
2023-02-16T11:50:09.596Z,100177.57
2023-02-16T11:52:38.464Z,100176.71
2023-02-16T11:55:27.247Z,100177.58
2023-02-16T11:57:57.790Z,100167.58
2023-02-16T12:00:27.075Z,100172.96
2023-02-16T12:02:59.415Z,100164.39
2023-02-16T12:05:36.771Z,100162.44
2023-02-16T12:08:49.483Z,100163.38
2023-02-16T12:11:40.691Z,100158.91
2023-02-16T12:14:43.571Z,100149.40
2023-02-16T12:17:41.118Z,100139.02
2023-02-16T12:20:28.922Z,100140.64
2023-02-16T12:23:23.737Z,100137.77
2023-02-16T12:26:06.146Z,100133.95
2023-02-16T12:28:50.545Z,100131.23
2023-02-16T12:31:58.251Z,100122.64
2023-02-16T12:34:48.501Z,100125.09
2023-02-16T12:37:47.792Z,100121.82
2023-02-16T12:40:48.575Z,100122.53
2023-02-16T12:43:54.384Z,100121.73
2023-02-16T12:46:33.312Z,100119.38
2023-02-16T12:49:28.608Z,100115.38
2023-02-16T12:52:13.119Z,100115.07
2023-02-16T12:54:54.188Z,100108.67
2023-02-16T12:57:30.920Z,100111.18
2023-02-16T13:00:16.312Z,100100.13
2023-02-16T13:02:51.515Z,100098.59
2023-02-16T13:05:33.091Z,100098.45
2023-02-16T13:08:39.454Z,100103.41
2023-02-16T13:11:29.057Z,100100.34
2023-02-16T13:14:05.985Z,100102.42
2023-02-16T13:17:03.077Z,100098.38
2023-02-16T13:19:32.940Z,100098.93
2023-02-16T13:22:42.957Z,100097.14
2023-02-16T13:25:37.869Z,100095.09
2023-02-16T13:28:25.260Z,100093.47
2023-02-16T13:31:19.164Z,100095.62
2023-02-16T13:34:09.964Z,100092.21
2023-02-16T13:37:05.399Z,100090.89
2023-02-16T13:39:53.591Z,100087.77
2023-02-16T13:42:52.736Z,100085.27
2023-02-16T13:45:26.279Z,100085.25
2023-02-16T13:47:58.120Z,100080.37
2023-02-16T13:50:32.641Z,100082.20
2023-02-16T13:53:19.228Z,100079.36
2023-02-16T13:55:50.399Z,100079.96
2023-02-16T13:58:32.085Z,100073.67
2023-02-16T14:01:34.770Z,100082.29
2023-02-16T14:04:07.188Z,100079.21
2023-02-16T14:06:40.368Z,100078.63
2023-02-16T14:09:16.302Z,100080.31
2023-02-16T14:11:54.721Z,100081.36
2023-02-16T14:14:28.484Z,100085.64
2023-02-16T14:17:25.937Z,100079.63
2023-02-16T14:20:04.510Z,100084.25
2023-02-16T14:22:54.910Z,100080.41
2023-02-16T14:25:23.896Z,100084.17
2023-02-16T14:28:02.272Z,100088.36
2023-02-16T14:30:35.933Z,100084.73
2023-02-16T14:33:17.586Z,100083.67
2023-02-16T14:36:00.455Z,100080.39
2023-02-16T14:38:44.080Z,100080.84
2023-02-16T14:41:14.514Z,100083.48
2023-02-16T14:43:50.972Z,100084.60
2023-02-16T14:46:48.339Z,100090.73
2023-02-16T14:49:40.091Z,100095.11
2023-02-16T14:52:11.860Z,100093.89
2023-02-16T14:54:49.930Z,100096.63
2023-02-16T14:57:27.091Z,100091.74
2023-02-16T15:00:06.234Z,100090.59
2023-02-16T15:03:04.075Z,100081.75
2023-02-16T15:05:38.355Z,100084.23
2023-02-16T15:08:10.720Z,100086.23
2023-02-16T15:10:41.052Z,100089.50
2023-02-16T15:13:10.522Z,100088.30
2023-02-16T15:15:52.005Z,100090.02
2023-02-16T15:18:28.024Z,100086.14
2023-02-16T15:21:01.947Z,100085.02
2023-02-16T15:23:36.047Z,100088.96
2023-02-16T15:26:20.235Z,100085.19
2023-02-16T15:29:02.746Z,100077.71
2023-02-16T15:31:35.440Z,100077.83
2023-02-16T15:34:08.438Z,100079.61
2023-02-16T15:36:41.120Z,100083.58
2023-02-16T15:39:17.739Z,100085.25
2023-02-16T15:41:52.032Z,100087.92
2023-02-16T15:44:37.119Z,100094.55
2023-02-16T15:47:22.631Z,100102.16
2023-02-16T15:49:52.506Z,100104.08
2023-02-16T15:52:36.549Z,100102.74
2023-02-16T15:55:09.659Z,100102.48
2023-02-16T15:57:41.854Z,100105.04
2023-02-16T16:00:19.909Z,100097.61
2023-02-16T16:02:52.089Z,100099.08
2023-02-16T16:05:35.979Z,100098.01
2023-02-16T16:08:07.914Z,100097.90
2023-02-16T16:10:41.805Z,100106.39
2023-02-16T16:13:20.508Z,100111.30
2023-02-16T16:15:51.152Z,100113.65
2023-02-16T16:18:47.840Z,100116.92
2023-02-16T16:21:39.791Z,100115.02
2023-02-16T16:24:11.679Z,100119.50
2023-02-16T16:27:00.198Z,100119.80
2023-02-16T16:29:37.719Z,100119.77
2023-02-16T16:32:07.853Z,100123.09
2023-02-16T16:34:41.792Z,100121.57
2023-02-16T16:37:37.892Z,100121.29
2023-02-16T16:40:19.309Z,100117.77
2023-02-16T16:43:14.825Z,100115.89
2023-02-16T16:45:49.700Z,100115.39
2023-02-16T16:48:26.066Z,100112.52
2023-02-16T16:51:40.924Z,100114.91
2023-02-16T16:54:33.201Z,100114.92
2023-02-16T16:57:16.086Z,100114.66
2023-02-16T16:59:45.432Z,100112.14
2023-02-16T17:02:15.033Z,100112.40
2023-02-16T17:04:44.431Z,100116.88
2023-02-16T17:07:14.203Z,100115.56
2023-02-16T17:09:43.497Z,100117.52
2023-02-16T17:12:13.443Z,100117.45
2023-02-16T17:14:42.380Z,100121.55
2023-02-16T17:17:14.660Z,100119.14
2023-02-16T17:19:44.324Z,100125.62
2023-02-16T17:22:16.961Z,100124.80
2023-02-16T17:24:47.347Z,100128.85
2023-02-16T17:27:16.959Z,100129.75
2023-02-16T17:29:47.584Z,100129.53
2023-02-16T17:32:17.171Z,100130.84
2023-02-16T17:34:46.561Z,100132.60
2023-02-16T17:37:18.029Z,100135.55
2023-02-16T17:39:48.592Z,100133.77
2023-02-16T17:42:17.740Z,100134.80
2023-02-16T17:44:48.079Z,100135.09
2023-02-16T17:47:18.803Z,100132.00
2023-02-16T17:49:49.256Z,100129.32
2023-02-16T17:52:18.737Z,100130.88
2023-02-16T17:54:48.328Z,100129.95
2023-02-16T17:57:19.210Z,100130.58
2023-02-16T17:59:48.560Z,100130.15
2023-02-16T18:02:17.984Z,100131.83
2023-02-16T18:04:47.943Z,100129.48
2023-02-16T18:07:20.646Z,100129.95
2023-02-16T18:09:51.152Z,100134.29
2023-02-16T18:12:20.981Z,100135.75
2023-02-16T18:14:50.946Z,100139.74
2023-02-16T18:17:20.197Z,100144.60
2023-02-16T18:19:49.236Z,100148.23
2023-02-16T18:22:18.864Z,100152.77
2023-02-16T18:24:48.105Z,100152.33
2023-02-16T18:27:19.003Z,100149.65
2023-02-16T18:29:49.119Z,100144.30
2023-02-16T18:32:18.898Z,100144.96
2023-02-16T18:34:48.595Z,100147.92
2023-02-16T18:37:18.000Z,100150.64
2023-02-16T18:39:47.293Z,100152.35
2023-02-16T18:42:18.142Z,100150.45
2023-02-16T18:44:48.585Z,100154.14
2023-02-16T18:47:17.879Z,100155.89
2023-02-16T18:49:49.575Z,100153.45
2023-02-16T18:52:20.351Z,100155.25
2023-02-16T18:54:50.043Z,100154.09
2023-02-16T18:57:20.713Z,100156.90
2023-02-16T18:59:50.942Z,100153.68
2023-02-16T19:02:20.503Z,100153.91
2023-02-16T19:04:49.727Z,100152.91
2023-02-16T19:07:19.792Z,100153.45
2023-02-16T19:09:49.313Z,100158.70
2023-02-16T19:12:19.059Z,100159.21
2023-02-16T19:14:48.185Z,100157.99
2023-02-16T19:17:18.195Z,100156.79
2023-02-16T19:19:48.164Z,100160.37
2023-02-16T19:22:18.014Z,100163.77
2023-02-16T19:24:50.289Z,100164.62
2023-02-16T19:27:20.427Z,100164.80
2023-02-16T19:29:50.489Z,100164.27
2023-02-16T19:32:21.393Z,100162.52
2023-02-16T19:34:50.887Z,100161.02
2023-02-16T19:37:20.027Z,100164.45
2023-02-16T19:39:49.382Z,100162.89
2023-02-16T19:42:18.797Z,100159.84
2023-02-16T19:44:47.919Z,100164.73
2023-02-16T19:47:17.799Z,100166.36
2023-02-16T19:49:47.183Z,100167.10
2023-02-16T19:52:17.802Z,100174.45
2023-02-16T19:54:47.068Z,100173.63
2023-02-16T19:57:17.197Z,100178.56
2023-02-16T19:59:47.330Z,100180.08
2023-02-16T20:02:18.183Z,100181.54
2023-02-16T20:04:47.819Z,100183.77
2023-02-16T20:07:18.332Z,100187.37
2023-02-16T20:09:50.056Z,100189.77
2023-02-16T20:12:21.842Z,100187.52
2023-02-16T20:14:52.232Z,100191.96
2023-02-16T20:17:22.474Z,100194.39
2023-02-16T20:19:53.651Z,100190.75
2023-02-16T20:22:23.990Z,100190.67
2023-02-16T20:24:54.298Z,100191.07
2023-02-16T20:27:25.924Z,100194.94
2023-02-16T20:29:56.744Z,100193.63
2023-02-16T20:32:28.154Z,100194.48
2023-02-16T20:34:57.826Z,100198.42
2023-02-16T20:37:27.141Z,100201.30
2023-02-16T20:39:56.941Z,100204.39
2023-02-16T20:42:26.889Z,100207.23
2023-02-16T20:44:56.270Z,100205.33
2023-02-16T20:47:25.695Z,100209.42
2023-02-16T20:49:55.630Z,100208.40
2023-02-16T20:52:24.768Z,100207.13
2023-02-16T20:54:54.010Z,100213.46
2023-02-16T20:57:27.137Z,100213.16
2023-02-16T20:59:57.787Z,100216.34
2023-02-16T21:02:27.141Z,100216.52
2023-02-16T21:04:56.283Z,100214.64
2023-02-16T21:07:26.085Z,100212.63
2023-02-16T21:09:56.013Z,100213.14
2023-02-16T21:12:25.260Z,100208.89
2023-02-16T21:14:54.274Z,100211.45
2023-02-16T21:17:24.157Z,100210.30
2023-02-16T21:19:53.488Z,100213.62
2023-02-16T21:22:22.572Z,100211.61
2023-02-16T21:24:52.849Z,100218.41
2023-02-16T21:27:21.809Z,100216.14
2023-02-16T21:29:50.630Z,100217.84
2023-02-16T21:32:19.744Z,100217.27
2023-02-16T21:34:50.105Z,100215.52
2023-02-16T21:37:20.710Z,100218.27
2023-02-16T21:40:09.090Z,100222.02
2023-02-16T21:42:38.642Z,100221.80
2023-02-16T21:45:13.890Z,100225.40
2023-02-16T21:48:04.899Z,100217.09
2023-02-16T21:50:39.937Z,100221.16
2023-02-16T21:53:10.818Z,100222.67
2023-02-16T21:55:58.956Z,100222.00
2023-02-16T21:58:29.098Z,100224.09
2023-02-16T22:01:00.789Z,100224.51
2023-02-16T22:03:29.939Z,100226.59
2023-02-16T22:06:04.608Z,100225.95
2023-02-16T22:08:35.510Z,100225.54
2023-02-16T22:11:13.477Z,100223.46
2023-02-16T22:13:42.618Z,100222.39
2023-02-16T22:16:17.143Z,100220.23
2023-02-16T22:18:48.099Z,100218.41
2023-02-16T22:21:18.093Z,100219.60
2023-02-16T22:23:47.359Z,100221.08
2023-02-16T22:26:28.195Z,100223.34
2023-02-16T22:28:58.794Z,100218.23
2023-02-16T22:31:29.278Z,100217.77
2023-02-16T22:34:04.682Z,100217.66
2023-02-16T22:36:34.725Z,100221.09
2023-02-16T22:39:04.746Z,100223.52
2023-02-16T22:41:35.072Z,100227.20
2023-02-16T22:44:04.443Z,100226.58
2023-02-16T22:46:33.637Z,100224.28
2023-02-16T22:49:02.666Z,100224.80
2023-02-16T22:51:31.683Z,100224.36
2023-02-16T22:54:02.832Z,100225.64
2023-02-16T22:56:33.183Z,100227.98
2023-02-16T22:59:02.086Z,100228.05
2023-02-16T23:01:31.874Z,100229.84
2023-02-16T23:04:01.747Z,100231.44
2023-02-16T23:06:36.288Z,100232.27
2023-02-16T23:09:08.586Z,100233.48
2023-02-16T23:11:37.719Z,100231.23
2023-02-16T23:14:16.578Z,100233.51
2023-02-16T23:16:50.877Z,100236.43
2023-02-16T23:19:23.367Z,100237.31
2023-02-16T23:21:52.968Z,100234.89
2023-02-16T23:24:24.902Z,100231.64
2023-02-16T23:26:55.012Z,100227.80
2023-02-16T23:29:24.571Z,100227.39
2023-02-16T23:31:53.662Z,100226.45
2023-02-16T23:34:23.491Z,100228.39
2023-02-16T23:36:52.772Z,100230.67
2023-02-16T23:39:22.062Z,100225.66
2023-02-16T23:41:51.250Z,100227.50
2023-02-16T23:44:20.163Z,100222.34
2023-02-16T23:46:49.023Z,100217.83
2023-02-16T23:49:17.972Z,100219.94
2023-02-16T23:51:46.561Z,100222.30
2023-02-16T23:54:15.361Z,100220.42
2023-02-16T23:56:43.889Z,100217.84
2023-02-16T23:59:12.474Z,100213.55
